Time;durP1;ratioP1;P1;durP2;ratioP2;P2;SDS_P1;SDS_P2;PMS_P1;PMS_P2;Temp;Humidity;BMP_temperature;BMP_pressure;BME280_temperature;BME280_humidity;BME280_pressure;Samples;Min_cycle;Max_cycle;Signal;HPM_P1;HPM_P2
2024/01/17 00:00:16;;;;;;;12.83;7.07;;;;;;;1.38;100.00;63060.63;5052762;28;20269;-54
2024/01/17 00:02:42;;;;;;;16.37;8.43;;;;;;;1.31;100.00;63052.50;5071053;28;20216;-55
2024/01/17 00:05:11;;;;;;;14.37;7.10;;;;;;;1.09;100.00;63026.69;5071596;28;20188;-54
2024/01/17 00:07:37;;;;;;;11.63;7.00;;;;;;;0.97;100.00;63016.16;5053267;28;20213;-57
2024/01/17 00:10:03;;;;;;;13.13;7.60;;;;;;;0.86;100.00;63004.25;5069886;28;20200;-55
2024/01/17 00:12:29;;;;;;;12.93;7.77;;;;;;;0.98;100.00;63016.72;5070812;28;20213;-59
2024/01/17 00:14:55;;;;;;;12.73;7.93;;;;;;;0.99;100.00;63017.81;5071077;28;20189;-55
2024/01/17 00:17:21;;;;;;;14.87;8.57;;;;;;;0.86;100.00;63004.25;5070094;28;20357;-55
2024/01/17 00:19:47;;;;;;;15.50;9.00;;;;;;;0.94;100.00;63012.94;5070754;28;20362;-55
2024/01/17 00:22:15;;;;;;;18.53;8.93;;;;;;;0.95;100.00;63015.94;5070894;28;20240;-54
2024/01/17 00:24:40;;;;;;;17.87;10.37;;;;;;;0.92;100.00;63010.22;5070861;28;20196;-55
2024/01/17 00:27:06;;;;;;;24.37;14.60;;;;;;;0.92;100.00;63010.75;5071267;28;20204;-55
2024/01/17 00:29:32;;;;;;;26.73;14.50;;;;;;;1.00;100.00;63019.44;5070675;28;20219;-55
2024/01/17 00:31:57;;;;;;;22.87;12.50;;;;;;;0.89;100.00;63004.50;5070333;28;20213;-55
2024/01/17 00:34:23;;;;;;;25.77;14.10;;;;;;;1.15;100.00;63033.19;5069329;28;20276;-59
2024/01/17 00:36:49;;;;;;;30.37;16.20;;;;;;;1.05;100.00;63024.84;5052284;28;20223;-54
2024/01/17 00:39:16;;;;;;;26.77;15.03;;;;;;;0.90;100.00;63008.59;5070667;28;20246;-55
2024/01/17 00:41:42;;;;;;;26.33;13.03;;;;;;;0.83;100.00;63001.56;5070983;28;20239;-53
2024/01/17 00:44:08;;;;;;;22.17;12.23;;;;;;;0.78;100.00;62995.59;5052534;28;20635;-53
2024/01/17 00:46:33;;;;;;;23.70;13.60;;;;;;;0.82;100.00;63000.47;5070592;28;20279;-55
2024/01/17 00:48:59;;;;;;;28.93;13.67;;;;;;;0.88;100.00;63006.44;5069450;28;20275;-54
2024/01/17 00:51:25;;;;;;;22.60;13.37;;;;;;;0.92;100.00;63007.72;5070599;28;20199;-57
2024/01/17 00:53:54;;;;;;;22.00;14.17;;;;;;;0.89;100.00;63006.97;5070406;28;20213;-55
2024/01/17 00:56:20;;;;;;;27.97;15.77;;;;;;;0.99;100.00;63017.81;5069685;28;20200;-53
2024/01/17 00:58:45;;;;;;;32.00;16.07;;;;;;;0.14;100.00;62926.84;5068764;28;20215;-54
2024/01/17 01:01:11;;;;;;;30.80;17.63;;;;;;;0.50;100.00;62965.81;5070721;28;20200;-53
2024/01/17 01:03:36;;;;;;;29.97;17.40;;;;;;;0.70;100.00;62986.94;5070573;28;20204;-54
2024/01/17 01:06:02;;;;;;;29.07;16.37;;;;;;;0.80;100.00;62997.75;5074076;28;20211;-54
2024/01/17 01:08:28;;;;;;;31.87;17.63;;;;;;;0.93;100.00;63011.31;5073993;28;20237;-56
2024/01/17 01:10:53;;;;;;;33.53;17.97;;;;;;;0.84;100.00;63002.09;5072776;28;20223;-55
2024/01/17 01:13:19;;;;;;;34.27;18.27;;;;;;;0.87;100.00;63005.34;5055357;28;20220;-56
2024/01/17 01:15:44;;;;;;;35.43;17.77;;;;;;;0.88;100.00;63003.41;5055964;28;20193;-56
2024/01/17 01:18:10;;;;;;;33.00;17.53;;;;;;;0.87;100.00;63005.34;5072621;28;20209;-58
2024/01/17 01:20:36;;;;;;;36.70;20.03;;;;;;;1.00;100.00;63018.88;5073936;28;20203;-54
2024/01/17 01:23:02;;;;;;;38.30;20.77;;;;;;;0.50;100.00;62965.28;5055819;28;20389;-54
2024/01/17 01:25:28;;;;;;;38.87;22.07;;;;;;;0.67;100.00;62983.66;5073838;28;20640;-55
2024/01/17 01:27:54;;;;;;;41.00;21.00;;;;;;;0.72;100.00;62989.66;5072776;28;20693;-54
2024/01/17 01:30:20;;;;;;;39.87;23.80;;;;;;;0.45;100.00;62962.88;5073795;28;20195;-53
2024/01/17 01:32:45;;;;;;;40.87;22.57;;;;;;;-0.25;100.00;62885.16;5055513;28;20314;-53
2024/01/17 01:35:11;;;;;;;44.03;23.30;;;;;;;-0.38;100.00;62868.06;5073706;28;20361;-52
2024/01/17 01:37:37;;;;;;;45.60;24.50;;;;;;;-0.76;100.00;62827.50;5109027;22;20315;-54
2024/01/17 01:40:04;;;;;;;45.43;20.93;;;;;;;-0.47;100.00;62863.84;5095945;28;20269;-54
2024/01/17 01:42:31;;;;;;;41.97;23.50;;;;;;;-0.37;100.00;62874.09;5114098;28;20211;-56
2024/01/17 01:44:57;;;;;;;45.50;22.17;;;;;;;-0.77;100.00;62831.38;5114010;28;20183;-54
2024/01/17 01:47:22;;;;;;;42.03;23.83;;;;;;;-0.48;100.00;62860.28;5095675;28;20218;-55
2024/01/17 01:49:48;;;;;;;42.63;22.10;;;;;;;-0.57;100.00;62850.53;5095780;28;20199;-54
2024/01/17 01:52:17;;;;;;;40.83;21.80;;;;;;;-0.53;100.00;62854.31;5113671;28;20216;-55
2024/01/17 01:54:43;;;;;;;44.03;24.07;;;;;;;-0.33;100.00;62876.50;5095519;28;20217;-55
2024/01/17 01:57:09;;;;;;;42.20;22.33;;;;;;;-0.07;100.00;62904.09;5113927;28;20204;-56
2024/01/17 01:59:35;;;;;;;39.67;22.50;;;;;;;-0.12;100.00;62899.22;5113839;28;20319;-53
2024/01/17 02:02:04;;;;;;;43.40;23.73;;;;;;;0.02;100.00;62913.31;5112925;28;20239;-53
2024/01/17 02:04:33;;;;;;;47.23;25.33;;;;;;;0.14;100.00;62923.81;5113550;28;20188;-53
2024/01/17 02:07:01;;;;;;;47.90;25.50;;;;;;;0.12;100.00;62924.13;5113660;28;20203;-56
2024/01/17 02:09:28;;;;;;;52.23;25.00;;;;;;;0.13;100.00;62922.72;5113542;28;20187;-58
2024/01/17 02:11:54;;;;;;;46.13;25.67;;;;;;;0.19;100.00;62932.25;5111869;28;20208;-55
2024/01/17 02:14:20;;;;;;;48.43;26.03;;;;;;;0.38;100.00;62957.78;5113321;28;20175;-53
2024/01/17 02:16:46;;;;;;;42.13;24.63;;;;;;;0.48;100.00;62963.66;5113757;28;20203;-55
2024/01/17 02:19:17;;;;;;;43.20;25.50;;;;;;;0.45;100.00;62959.84;5112148;28;20195;-54
2024/01/17 02:21:43;;;;;;;46.17;26.63;;;;;;;0.51;100.00;62966.88;5095150;28;20200;-54
2024/01/17 02:24:16;;;;;;;54.97;27.37;;;;;;;0.32;100.00;62945.78;5113607;28;20191;-53
2024/01/17 02:26:42;;;;;;;48.50;26.63;;;;;;;0.51;100.00;62964.41;5113687;28;20226;-52
2024/01/17 02:29:08;;;;;;;53.27;26.37;;;;;;;0.58;100.00;62973.94;5113373;28;20191;-56
2024/01/17 02:31:34;;;;;;;48.83;26.13;;;;;;;0.56;100.00;62969.28;5112596;28;20194;-55
2024/01/17 02:34:00;;;;;;;47.00;26.33;;;;;;;0.53;100.00;62970.97;5113260;28;20218;-54
2024/01/17 02:36:26;;;;;;;50.47;26.20;;;;;;;1.00;100.00;63016.41;5112172;28;20188;-54
2024/01/17 02:38:51;;;;;;;49.83;25.53;;;;;;;0.96;100.00;63012.63;5094977;28;20203;-55
2024/01/17 02:41:18;;;;;;;48.37;25.93;;;;;;;0.78;100.00;62998.63;5095165;28;20207;-54
2024/01/17 02:43:43;;;;;;;48.87;24.47;;;;;;;0.75;100.00;62994.81;5094570;28;20314;-54
2024/01/17 02:46:09;;;;;;;43.50;23.83;;;;;;;0.98;100.00;63017.25;5112998;28;20192;-54
2024/01/17 02:48:34;;;;;;;51.97;25.50;;;;;;;0.68;100.00;62984.75;5111803;28;20199;-53
2024/01/17 02:51:00;;;;;;;46.13;24.47;;;;;;;0.72;100.00;62989.66;5113134;28;20191;-54
2024/01/17 02:53:26;;;;;;;47.53;25.77;;;;;;;0.94;100.00;63010.44;5113069;28;20211;-53
2024/01/17 02:55:53;;;;;;;46.03;25.07;;;;;;;0.84;100.00;63005.13;5094761;28;20203;-54
2024/01/17 02:58:19;;;;;;;41.30;24.03;;;;;;;0.85;100.00;63003.72;5094682;28;20209;-54
2024/01/17 03:00:44;;;;;;;43.97;24.63;;;;;;;1.03;100.00;63022.16;5113197;28;20191;-55
2024/01/17 03:03:11;;;;;;;41.70;24.13;;;;;;;1.00;100.00;63021.91;5093664;28;20242;-56
2024/01/17 03:05:37;;;;;;;48.23;24.30;;;;;;;0.98;100.00;63019.19;5111890;28;20210;-57
2024/01/17 03:08:05;;;;;;;40.53;23.00;;;;;;;0.95;100.00;63011.53;5112759;28;20619;-55
2024/01/17 03:10:31;;;;;;;45.83;24.53;;;;;;;0.80;100.00;62998.31;5110970;28;20703;-53
2024/01/17 03:12:57;;;;;;;47.70;25.00;;;;;;;0.92;100.00;63010.22;5111903;28;20613;-53
2024/01/17 03:15:23;;;;;;;48.43;24.07;;;;;;;1.03;100.00;63022.66;5112772;28;20707;-54
2024/01/17 03:17:51;;;;;;;48.17;24.60;;;;;;;0.92;100.00;63010.75;5093034;28;20209;-53
2024/01/17 03:20:18;;;;;;;46.80;25.10;;;;;;;0.96;100.00;63012.63;5110731;28;20673;-55
2024/01/17 03:22:44;;;;;;;42.40;24.73;;;;;;;0.96;100.00;63012.06;5112652;28;20229;-53
2024/01/17 03:25:18;;;;;;;47.63;24.20;;;;;;;1.16;100.00;63036.22;5112445;28;20206;-54
2024/01/17 03:27:44;;;;;;;39.13;22.43;;;;;;;1.46;100.00;63068.75;5111712;28;20299;-55
2024/01/17 03:30:10;;;;;;;37.70;18.67;;;;;;;1.39;100.00;63059.22;5112706;28;20270;-54
2024/01/17 03:32:35;;;;;;;36.43;19.80;;;;;;;1.25;100.00;63049.00;5112410;28;20216;-55
2024/01/17 03:35:02;;;;;;;33.33;19.57;;;;;;;1.25;100.00;63049.00;5112223;28;20196;-54
2024/01/17 03:37:27;;;;;;;35.37;20.40;;;;;;;1.02;100.00;63021.06;5093468;28;20203;-55
2024/01/17 03:39:53;;;;;;;40.03;20.47;;;;;;;1.14;100.00;63031.56;5111973;28;20606;-55
2024/01/17 03:42:18;;;;;;;31.30;17.37;;;;;;;1.16;100.00;63036.22;5093730;28;20204;-55
2024/01/17 03:47:29;;;;;;;25.97;14.30;;;;;;;1.01;100.00;63022.97;5111688;28;20268;-54
2024/01/17 03:49:54;;;;;;;23.63;14.40;;;;;;;0.77;100.00;62994.50;5111738;28;20195;-56
2024/01/17 03:52:20;;;;;;;29.57;15.43;;;;;;;0.63;100.00;62982.34;5112072;28;20214;-54
2024/01/17 03:54:46;;;;;;;22.23;13.13;;;;;;;0.73;100.00;62990.16;5112164;28;20733;-55
2024/01/17 03:57:11;;;;;;;25.50;13.27;;;;;;;0.72;100.00;62991.56;5111969;28;20241;-56
2024/01/17 03:59:37;;;;;;;24.70;14.37;;;;;;;0.52;100.00;62967.44;5093496;28;20179;-55
2024/01/17 04:02:02;;;;;;;22.13;13.10;;;;;;;0.09;100.00;62918.38;5093045;28;20230;-54
2024/01/17 04:04:28;;;;;;;28.77;15.57;;;;;;;-0.20;100.00;62890.56;5111513;28;20228;-59
2024/01/17 04:06:54;;;;;;;27.13;15.07;;;;;;;-0.19;100.00;62893.59;5112134;28;20208;-55
2024/01/17 04:09:19;;;;;;;36.67;20.30;;;;;;;-0.68;100.00;62838.63;5093633;28;20266;-55
2024/01/17 04:11:45;;;;;;;37.70;20.33;;;;;;;-0.78;100.00;62830.28;5111613;28;20194;-54
2024/01/17 04:14:12;;;;;;;38.03;21.50;;;;;;;-0.97;100.00;62809.75;5110559;28;20199;-54
2024/01/17 04:16:39;;;;;;;40.67;21.47;;;;;;;-0.39;100.00;62870.00;5111184;28;20238;-54
2024/01/17 04:19:05;;;;;;;38.07;21.17;;;;;;;-0.10;100.00;62903.31;5108457;28;20180;-52
2024/01/17 04:21:31;;;;;;;42.00;23.07;;;;;;;-0.02;100.00;62910.03;5110427;28;20187;-54
2024/01/17 04:23:56;;;;;;;37.53;21.17;;;;;;;0.19;100.00;62934.16;5111585;28;20641;-52
2024/01/17 04:26:23;;;;;;;38.13;19.53;;;;;;;0.20;100.00;62930.31;5093451;28;20230;-53
2024/01/17 04:28:50;;;;;;;43.90;22.13;;;;;;;-0.03;100.00;62911.44;5111342;28;20196;-54
2024/01/17 04:31:24;;;;;;;41.03;20.80;;;;;;;-0.02;100.00;62910.03;5093501;28;20512;-55
2024/01/17 04:33:50;;;;;;;43.97;22.03;;;;;;;0.12;100.00;62924.13;5109951;28;20718;-53
2024/01/17 04:36:16;;;;;;;39.10;20.80;;;;;;;0.33;100.00;62944.91;5111701;28;20191;-59
2024/01/17 04:38:43;;;;;;;31.37;17.90;;;;;;;0.03;100.00;62917.41;5092778;28;20244;-53
2024/01/17 04:41:13;;;;;;;32.37;17.87;;;;;;;-0.08;100.00;62901.06;5111422;28;20199;-54
2024/01/17 04:43:42;;;;;;;35.50;17.87;;;;;;;0.11;100.00;62923.03;5111220;28;20207;-52
2024/01/17 04:46:12;;;;;;;33.63;18.13;;;;;;;-0.09;100.00;62900.00;5092966;28;20188;-53
2024/01/17 04:48:39;;;;;;;31.50;16.87;;;;;;;0.05;100.00;62917.09;5110611;28;20211;-53
2024/01/17 04:51:05;;;;;;;31.03;16.27;;;;;;;0.04;100.00;62917.94;5109833;28;20187;-53
2024/01/17 04:53:32;;;;;;;31.37;16.93;;;;;;;0.04;100.00;62913.00;5111232;28;20226;-55
2024/01/17 04:55:59;;;;;;;32.93;16.00;;;;;;;0.20;100.00;62932.78;5093095;28;20191;-53
2024/01/17 04:58:26;;;;;;;37.30;15.83;;;;;;;0.06;100.00;62918.19;5110963;28;20214;-54
2024/01/17 05:00:53;;;;;;;31.30;15.70;;;;;;;0.20;100.00;62932.78;5111525;28;20191;-56
2024/01/17 05:03:19;;;;;;;31.43;15.13;;;;;;;0.26;100.00;62939.28;5110355;28;20238;-53
2024/01/17 05:05:45;;;;;;;29.90;15.47;;;;;;;0.20;100.00;62930.31;5110602;28;20191;-53
2024/01/17 05:08:11;;;;;;;30.97;16.00;;;;;;;-0.15;100.00;62897.91;5111086;28;20299;-53
2024/01/17 05:10:37;;;;;;;26.57;14.60;;;;;;;-0.16;100.00;62897.38;5111012;28;20240;-55
2024/01/17 05:13:03;;;;;;;25.97;14.43;;;;;;;0.05;100.00;62917.09;5110634;28;20219;-54
2024/01/17 05:15:28;;;;;;;31.57;17.20;;;;;;;-0.10;100.00;62898.38;5092507;28;20305;-55
2024/01/17 05:17:54;;;;;;;34.37;17.27;;;;;;;-0.09;100.00;62904.94;5091688;28;20196;-54
2024/01/17 05:20:20;;;;;;;35.20;17.07;;;;;;;-0.03;100.00;62908.97;5111292;28;20556;-55
2024/01/17 05:22:45;;;;;;;32.13;17.57;;;;;;;0.24;100.00;62939.59;5110966;28;20211;-53
2024/01/17 05:25:11;;;;;;;37.53;17.63;;;;;;;0.35;100.00;62949.56;5092811;28;20192;-54
2024/01/17 05:27:37;;;;;;;32.53;17.60;;;;;;;0.49;100.00;62964.19;5110549;28;20209;-54
2024/01/17 05:30:05;;;;;;;34.53;16.77;;;;;;;0.31;100.00;62944.69;5092349;28;20710;-54
2024/01/17 05:32:32;;;;;;;34.60;18.80;;;;;;;0.31;100.00;62945.22;5107181;28;20735;-54
2024/01/17 05:34:58;;;;;;;32.50;18.70;;;;;;;-0.45;100.00;62863.53;5110424;28;20192;-55
2024/01/17 05:37:24;;;;;;;35.90;17.07;;;;;;;-0.53;100.00;62857.34;5109160;28;20210;-53
2024/01/17 05:39:49;;;;;;;30.10;16.37;;;;;;;0.03;100.00;62914.38;5110482;28;20203;-54
2024/01/17 05:42:15;;;;;;;36.47;18.60;;;;;;;0.39;100.00;62953.91;5092260;28;20297;-53
2024/01/17 05:44:42;;;;;;;32.57;16.77;;;;;;;0.59;100.00;62975.56;5110408;28;20592;-53
2024/01/17 05:47:07;;;;;;;31.90;16.70;;;;;;;0.57;100.00;62972.84;5091498;28;20215;-54
2024/01/17 05:49:33;;;;;;;31.43;16.20;;;;;;;0.61;100.00;62977.16;5109004;28;20180;-54
2024/01/17 05:51:59;;;;;;;28.23;15.67;;;;;;;0.94;100.00;63009.91;5078677;28;20676;-53
2024/01/17 05:54:24;;;;;;;27.73;16.50;;;;;;;0.82;100.00;62998.00;5095587;28;20211;-55
2024/01/17 05:56:59;;;;;;;33.30;17.73;;;;;;;0.38;100.00;62952.28;5114210;28;20215;-54
2024/01/17 05:59:25;;;;;;;32.33;17.47;;;;;;;-0.53;100.00;62854.88;5113705;28;20203;-55
2024/01/17 06:01:50;;;;;;;38.53;19.57;;;;;;;-0.40;100.00;62868.91;5113477;28;20204;-54
2024/01/17 06:04:16;;;;;;;40.17;21.80;;;;;;;-0.69;100.00;62840.03;5111862;28;20718;-56
2024/01/17 06:06:42;;;;;;;45.63;22.90;;;;;;;-0.67;100.00;62839.19;5112939;28;20702;-54
2024/01/17 06:09:08;;;;;;;41.23;20.33;;;;;;;-0.71;100.00;62832.94;5077299;28;20660;-53
2024/01/17 06:11:33;;;;;;;38.43;21.50;;;;;;;-0.30;100.00;62879.75;5113646;28;20195;-53
2024/01/17 06:13:59;;;;;;;38.70;20.97;;;;;;;0.05;100.00;62914.59;5113233;28;20237;-54
2024/01/17 06:16:25;;;;;;;39.20;21.17;;;;;;;0.36;100.00;62950.09;5113540;28;20188;-52
2024/01/17 06:18:51;;;;;;;38.60;21.43;;;;;;;0.43;100.00;62957.69;5094495;28;20207;-54
2024/01/17 06:21:17;;;;;;;40.70;21.30;;;;;;;0.62;100.00;62980.75;5113923;28;20207;-55
2024/01/17 06:23:44;;;;;;;40.70;20.93;;;;;;;0.69;100.00;62986.38;5094957;28;20222;-55
2024/01/17 06:26:09;;;;;;;36.87;19.23;;;;;;;0.88;100.00;63003.94;5113149;28;20192;-54
2024/01/17 06:28:35;;;;;;;35.27;20.03;;;;;;;3.34;100.00;63272.22;5113090;28;20226;-56
2024/01/17 06:31:04;;;;;;;37.33;21.93;;;;;;;3.20;100.00;63257.03;5113548;28;20221;-57
2024/01/17 06:33:29;;;;;;;37.37;20.53;;;;;;;2.76;100.00;63211.72;5113166;28;20207;-56
2024/01/17 06:35:57;;;;;;;33.00;19.53;;;;;;;1.62;100.00;63086.09;5094950;28;20663;-57
2024/01/17 06:38:23;;;;;;;33.40;19.20;;;;;;;0.85;100.00;63003.16;5113051;28;20209;-57
2024/01/17 06:40:50;;;;;;;42.67;21.93;;;;;;;0.14;100.00;62926.28;5110798;28;20181;-56
2024/01/17 06:43:16;;;;;;;37.03;20.13;;;;;;;-0.29;100.00;62880.84;5092927;28;20235;-56
2024/01/17 06:45:42;;;;;;;40.80;21.53;;;;;;;-0.04;100.00;62907.88;5112210;28;20198;-56
2024/01/17 06:48:08;;;;;;;38.90;21.50;;;;;;;0.17;100.00;62927.59;5111442;28;20693;-56
2024/01/17 06:50:34;;;;;;;39.00;20.37;;;;;;;0.63;100.00;62979.88;5110479;28;20202;-56
2024/01/17 06:52:59;;;;;;;37.57;20.13;;;;;;;0.49;100.00;62969.13;5111490;28;20223;-57
2024/01/17 06:55:25;;;;;;;34.20;19.90;;;;;;;0.10;100.00;62921.97;5113367;28;20274;-57
2024/01/17 06:57:51;;;;;;;35.93;21.30;;;;;;;-0.01;100.00;62911.13;5093408;28;20209;-56
2024/01/17 07:00:18;;;;;;;37.70;20.80;;;;;;;0.26;100.00;62939.81;5111113;28;20195;-55
2024/01/17 07:02:43;;;;;;;37.90;21.23;;;;;;;0.62;100.00;62978.25;5094680;28;20668;-57
2024/01/17 07:05:09;;;;;;;37.53;20.80;;;;;;;1.08;100.00;63025.06;5112054;28;20197;-56
2024/01/17 07:07:34;;;;;;;37.10;21.63;;;;;;;1.28;100.00;63049.78;5094548;28;20624;-56
2024/01/17 07:10:00;;;;;;;34.00;18.93;;;;;;;1.49;100.00;63072.53;5112714;28;20226;-56
2024/01/17 07:12:26;;;;;;;29.53;18.20;;;;;;;1.20;100.00;63040.56;5094080;28;20682;-56
2024/01/17 07:14:54;;;;;;;30.73;18.50;;;;;;;1.58;100.00;63079.81;5093989;28;20192;-56
2024/01/17 07:17:19;;;;;;;28.47;16.53;;;;;;;1.72;100.00;63093.91;5112667;28;20237;-57
2024/01/17 07:19:45;;;;;;;30.30;17.87;;;;;;;1.42;100.00;63061.91;5112387;28;20212;-56
2024/01/17 07:22:13;;;;;;;29.23;17.57;;;;;;;1.81;100.00;63106.16;5094268;28;20268;-61
2024/01/17 07:24:39;;;;;;;29.67;17.60;;;;;;;1.93;100.00;63116.69;5112057;28;20262;-56
2024/01/17 07:27:04;;;;;;;35.03;17.87;;;;;;;1.73;100.00;63098.03;5112586;28;20215;-57
2024/01/17 07:29:30;;;;;;;26.30;16.43;;;;;;;1.54;100.00;63077.41;5112477;28;20252;-59
2024/01/17 07:31:57;;;;;;;29.50;16.27;;;;;;;1.73;100.00;63095.00;5112281;28;20213;-56
2024/01/17 07:34:22;;;;;;;33.10;17.93;;;;;;;1.58;100.00;63079.81;5112187;28;20237;-56
2024/01/17 07:36:48;;;;;;;30.50;18.40;;;;;;;1.15;100.00;63032.66;5092987;28;20227;-55
2024/01/17 07:39:18;;;;;;;36.60;19.00;;;;;;;1.15;100.00;63032.66;5112299;28;20245;-58
2024/01/17 07:41:44;;;;;;;36.17;19.17;;;;;;;0.98;100.00;63017.25;5094193;28;20195;-57
2024/01/17 07:44:10;;;;;;;36.63;20.57;;;;;;;1.48;100.00;63071.44;5112093;28;20191;-56
2024/01/17 07:46:36;;;;;;;36.30;19.97;;;;;;;1.59;100.00;63083.38;5112126;28;20217;-56
2024/01/17 07:49:02;;;;;;;35.27;19.83;;;;;;;1.87;100.00;63110.72;5111970;28;20194;-56
2024/01/17 07:51:27;;;;;;;22.43;14.20;;;;;;;1.56;100.00;63082.06;5111612;28;20199;-56
2024/01/17 07:53:53;;;;;;;21.40;14.00;;;;;;;1.28;100.00;63049.78;5111307;28;20664;-59
2024/01/17 07:56:19;;;;;;;22.20;13.87;;;;;;;1.90;100.00;63115.94;5111224;28;20605;-62
2024/01/17 07:58:44;;;;;;;21.87;13.53;;;;;;;2.39;100.00;63169.63;5111457;28;20214;-57
2024/01/17 08:01:10;;;;;;;22.40;14.37;;;;;;;2.14;100.00;63141.97;5112619;28;20191;-59
2024/01/17 08:03:36;;;;;;;25.63;14.03;;;;;;;2.40;100.00;63170.69;5111969;28;20203;-57
2024/01/17 08:06:02;;;;;;;26.67;14.70;;;;;;;2.60;100.00;63191.31;5093681;28;20214;-57
2024/01/17 08:08:28;;;;;;;25.63;14.20;;;;;;;2.54;100.00;63185.88;5111922;28;20793;-58
2024/01/17 08:10:54;;;;;;;26.03;14.27;;;;;;;2.47;100.00;63177.75;5111873;28;20662;-58
2024/01/17 08:13:20;;;;;;;29.40;16.90;;;;;;;1.91;100.00;63117.00;5111308;28;20246;-57
2024/01/17 08:15:45;;;;;;;31.47;14.97;;;;;;;1.89;100.00;63114.81;5111593;28;20214;-55
2024/01/17 08:18:13;;;;;;;24.20;14.40;;;;;;;2.27;100.00;63154.13;5111048;28;20223;-56
2024/01/17 08:20:39;;;;;;;29.77;15.40;;;;;;;1.62;100.00;63081.66;5093386;28;20251;-56
2024/01/17 08:23:05;;;;;;;30.47;15.07;;;;;;;1.64;100.00;63088.81;5093275;28;20298;-56
2024/01/17 08:25:32;;;;;;;29.00;16.37;;;;;;;1.95;100.00;63121.88;5093125;28;20202;-56
2024/01/17 08:27:59;;;;;;;27.33;15.87;;;;;;;2.18;100.00;63141.31;5111673;28;20207;-56
2024/01/17 08:30:24;;;;;;;22.70;14.63;;;;;;;1.52;100.00;63072.75;5111626;28;20214;-56
2024/01/17 08:32:53;;;;;;;26.77;15.20;;;;;;;1.66;100.00;63090.97;5111408;28;20625;-60
2024/01/17 08:35:21;;;;;;;24.37;15.07;;;;;;;1.89;100.00;63115.38;5111387;28;20179;-59
2024/01/17 08:37:47;;;;;;;22.90;14.47;;;;;;;2.20;100.00;63145.97;5092992;28;20233;-55
2024/01/17 08:40:13;;;;;;;21.07;13.27;;;;;;;2.65;100.00;63197.28;5111686;28;20179;-57
2024/01/17 08:42:39;;;;;;;26.70;15.97;;;;;;;2.76;100.00;63206.22;5111549;28;20242;-56
2024/01/17 08:45:06;;;;;;;23.17;14.23;;;;;;;2.64;100.00;63193.72;5111181;28;20244;-55
2024/01/17 08:47:33;;;;;;;28.57;15.33;;;;;;;2.42;100.00;63172.88;5111201;28;20209;-57
2024/01/17 08:50:00;;;;;;;27.40;14.93;;;;;;;2.14;100.00;63142.47;5111424;28;20634;-56
2024/01/17 08:52:27;;;;;;;26.40;16.10;;;;;;;1.59;100.00;63083.38;5111323;28;20215;-56
2024/01/17 08:55:00;;;;;;;28.43;15.87;;;;;;;1.68;100.00;63090.09;5110940;28;20248;-56
2024/01/17 08:57:26;;;;;;;22.63;13.47;;;;;;;1.92;100.00;63121.09;5093105;28;20207;-55
2024/01/17 08:59:51;;;;;;;24.30;12.93;;;;;;;1.72;100.00;63096.41;5111273;28;20245;-56
2024/01/17 09:02:18;;;;;;;23.73;13.93;;;;;;;1.47;100.00;63069.84;5111182;28;20199;-57
2024/01/17 09:04:43;;;;;;;25.80;14.17;;;;;;;1.59;100.00;63082.84;5092863;28;20192;-56
2024/01/17 09:07:09;;;;;;;25.70;14.60;;;;;;;1.75;100.00;63097.72;5111154;28;20279;-56
2024/01/17 09:09:35;;;;;;;24.57;14.20;;;;;;;2.05;100.00;63129.69;5110950;28;20569;-56
2024/01/17 09:12:01;;;;;;;27.60;16.23;;;;;;;2.01;100.00;63125.91;5111022;28;20229;-62
2024/01/17 09:14:26;;;;;;;29.50;17.63;;;;;;;2.24;100.00;63150.31;5110879;28;20717;-58
2024/01/17 09:16:52;;;;;;;36.60;19.03;;;;;;;2.00;100.00;63127.28;5110801;28;20591;-55
2024/01/17 09:19:20;;;;;;;35.07;19.87;;;;;;;2.46;100.00;63177.22;5110798;28;20256;-57
2024/01/17 09:21:47;;;;;;;38.07;19.17;;;;;;;2.51;100.00;63180.16;5111307;28;20203;-56
2024/01/17 09:24:13;;;;;;;33.30;19.17;;;;;;;2.89;100.00;63223.34;5110721;28;20187;-59
2024/01/17 09:26:39;;;;;;;37.03;18.77;;;;;;;3.04;100.00;63239.66;5114333;28;20606;-56
2024/01/17 09:29:04;;;;;;;33.30;18.87;;;;;;;3.10;100.00;63245.63;5113851;28;20197;-56
2024/01/17 09:31:30;;;;;;;29.70;19.27;;;;;;;3.07;100.00;63240.41;5114461;28;20199;-60
2024/01/17 09:33:56;;;;;;;37.17;20.20;;;;;;;2.48;100.00;63176.38;5114329;28;20210;-57
2024/01/17 09:36:21;;;;;;;35.23;20.10;;;;;;;2.68;100.00;63200.56;5114239;28;20196;-56
2024/01/17 09:38:47;;;;;;;33.40;18.70;;;;;;;3.15;100.00;63251.59;5114346;28;20211;-56
2024/01/17 09:41:13;;;;;;;35.83;19.53;;;;;;;3.43;100.00;63281.47;5112790;28;20601;-55
2024/01/17 09:43:39;;;;;;;38.10;17.43;;;;;;;3.55;100.00;63293.97;5094531;28;20272;-56
2024/01/17 09:46:11;;;;;;;33.87;18.43;;;;;;;3.25;100.00;63259.44;5095765;28;20194;-56
2024/01/17 09:48:38;;;;;;;42.90;18.87;;;;;;;2.75;100.00;63205.66;5079321;28;20218;-55
2024/01/17 09:51:04;;;;;;;39.33;20.03;;;;;;;3.21;100.00;63255.59;5094152;28;20180;-56
2024/01/17 09:53:33;;;;;;;31.53;18.83;;;;;;;3.42;100.00;63275.94;5113403;28;20724;-56
2024/01/17 09:56:00;;;;;;;36.63;19.60;;;;;;;3.73;100.00;63311.56;5095520;28;20257;-56
2024/01/17 09:58:30;;;;;;;30.63;20.00;;;;;;;3.92;100.00;63334.72;5113056;28;20292;-55
2024/01/17 10:00:57;;;;;;;38.63;19.73;;;;;;;3.76;98.22;63314.28;5113788;28;20270;-55
2024/01/17 10:03:24;;;;;;;36.53;19.73;;;;;;;3.57;100.00;63296.69;5113790;28;20218;-57
2024/01/17 10:05:51;;;;;;;36.20;20.27;;;;;;;3.41;100.00;63279.81;5099567;28;20224;-56
2024/01/17 10:08:18;;;;;;;37.13;19.67;;;;;;;3.36;99.87;63276.34;5093458;28;20235;-56
2024/01/17 10:10:44;;;;;;;36.80;19.90;;;;;;;3.36;99.25;63271.91;5093538;28;20660;-56
2024/01/17 10:13:11;;;;;;;36.23;20.67;;;;;;;2.98;100.00;63230.66;5092012;28;20212;-56
2024/01/17 10:15:45;;;;;;;40.50;21.13;;;;;;;3.13;100.00;63251.38;5074340;28;20292;-55
2024/01/17 10:18:12;;;;;;;37.57;19.67;;;;;;;3.50;100.00;63286.56;5099380;28;20238;-59
2024/01/17 10:20:38;;;;;;;33.50;20.03;;;;;;;3.57;96.79;63293.63;5101833;28;20283;-57
2024/01/17 10:23:06;;;;;;;36.03;19.70;;;;;;;3.91;98.29;63333.63;5090171;28;20297;-55
2024/01/17 10:25:39;;;;;;;39.23;21.03;;;;;;;3.66;96.72;63303.97;5091805;28;20203;-56
2024/01/17 10:28:06;;;;;;;31.23;18.23;;;;;;;3.38;96.58;63273.53;5091457;28;20254;-56
2024/01/17 10:30:32;;;;;;;30.30;18.07;;;;;;;3.74;94.83;63312.09;5091674;28;20716;-56
2024/01/17 10:32:58;;;;;;;34.53;17.43;;;;;;;3.89;95.68;63331.47;5099506;22;20228;-56
2024/01/17 10:35:24;;;;;;;36.83;19.13;;;;;;;3.64;93.08;63301.78;5091827;28;20197;-56
2024/01/17 10:37:54;;;;;;;50.93;19.53;;;;;;;3.91;92.67;63331.13;5079700;28;20285;-56
2024/01/17 10:40:20;;;;;;;38.97;18.77;;;;;;;4.14;93.23;63358.09;5071751;28;20189;-57
2024/01/17 10:42:45;;;;;;;32.80;18.10;;;;;;;3.95;92.17;63332.44;5072464;28;20304;-56
2024/01/17 10:45:22;;;;;;;34.30;19.20;;;;;;;4.49;90.42;63396.16;5072869;28;20279;-55
2024/01/17 10:47:48;;;;;;;35.53;19.30;;;;;;;4.64;91.12;63411.91;5072753;28;20239;-63
2024/01/17 10:50:16;;;;;;;37.30;17.17;;;;;;;5.97;100.00;63556.19;5054917;28;20188;-58
2024/01/17 10:52:43;;;;;;;36.50;16.77;;;;;;;7.71;100.00;63741.78;5071653;28;20455;-56
2024/01/17 10:55:10;;;;;;;27.67;17.33;;;;;;;8.52;100.00;63829.69;5054218;28;20196;-54
2024/01/17 10:57:41;;;;;;;36.60;18.07;;;;;;;9.65;100.00;63952.63;5072415;28;20209;-56
2024/01/17 11:00:11;;;;;;;28.60;16.27;;;;;;;10.00;100.00;63990.91;5071384;28;20205;-55
2024/01/17 11:02:40;;;;;;;22.80;14.57;;;;;;;10.82;95.69;64077.59;5071326;28;20309;-54
2024/01/17 11:05:11;;;;;;;25.23;16.33;;;;;;;10.75;82.71;64074.97;5072338;28;20200;-55
2024/01/17 11:07:37;;;;;;;25.50;14.37;;;;;;;11.63;80.46;64168.31;5054350;28;20224;-55
2024/01/17 11:10:05;;;;;;;23.43;14.90;;;;;;;11.96;65.81;64203.94;5072372;28;20330;-56
2024/01/17 11:12:33;;;;;;;26.33;16.03;;;;;;;10.51;58.28;64043.66;5054155;28;20300;-57
2024/01/17 11:15:07;;;;;;;27.60;15.43;;;;;;;9.13;63.49;63899.38;5055029;28;20201;-56